Maldives Meteorological Service

METAR

Station
VRMM
METAR VRMM 222000Z 05006KT 9999 TS FEW018 FEW019CB SCT280 28/24 Q1008 CB E,SSE TEMPO 5000 -TSRA=
VRMH
METAR VRMH 222000Z 00000KT 9000 FEW018TCU SCT270 27/25 Q1009=
VRMK
METAR VRMK 222000Z 24004KT 9999 TS FEW018 FEW019CB BKN120 27/24 Q1009 RETS CB W, NW=
VRMT
METAR VRMT 222000Z 33008KT 9999 SCT017 FEW018CB BKN120 27/25 Q1009 CB N,NW=
VRMG
METAR VRMG 222000Z 27011KT 9999 SCT017TCU BKN260 28/25 Q1009 TEMPO 4000 –TSRA=
Last Updated : 2017-11-23 01:00:03

SPECI

Station
VRMM
VRMH
VRMK
VRMT
VRMG
Last Updated : 2017-11-23 01:00:03